sensor_id;sensor_type;location;lat;lon;timestamp;P1;durP1;ratioP1;P2;durP2;ratioP2
18048;SDS011;9149;47.002;8.604;2023-07-13T00:00:38;4.60;;;2.00;;
18048;SDS011;9149;47.002;8.604;2023-07-13T00:03:09;4.15;;;1.85;;
18048;SDS011;9149;47.002;8.604;2023-07-13T00:05:40;4.28;;;1.75;;
18048;SDS011;9149;47.002;8.604;2023-07-13T00:08:11;3.10;;;1.65;;
18048;SDS011;9149;47.002;8.604;2023-07-13T00:10:40;4.93;;;2.20;;
18048;SDS011;9149;47.002;8.604;2023-07-13T00:13:10;2.92;;;2.00;;
18048;SDS011;9149;47.002;8.604;2023-07-13T00:15:39;5.32;;;1.67;;
18048;SDS011;9149;47.002;8.604;2023-07-13T00:18:08;3.58;;;2.10;;
18048;SDS011;9149;47.002;8.604;2023-07-13T00:20:38;2.42;;;1.63;;
18048;SDS011;9149;47.002;8.604;2023-07-13T00:23:09;3.30;;;1.90;;
18048;SDS011;9149;47.002;8.604;2023-07-13T00:25:38;2.67;;;1.58;;
18048;SDS011;9149;47.002;8.604;2023-07-13T00:28:06;2.55;;;1.50;;
18048;SDS011;9149;47.002;8.604;2023-07-13T00:30:35;2.25;;;1.63;;
18048;SDS011;9149;47.002;8.604;2023-07-13T00:33:03;3.22;;;1.38;;
18048;SDS011;9149;47.002;8.604;2023-07-13T00:35:43;1.67;;;1.35;;
18048;SDS011;9149;47.002;8.604;2023-07-13T00:38:13;2.75;;;1.77;;
18048;SDS011;9149;47.002;8.604;2023-07-13T00:40:41;2.92;;;1.58;;
18048;SDS011;9149;47.002;8.604;2023-07-13T00:43:11;2.60;;;1.42;;
18048;SDS011;9149;47.002;8.604;2023-07-13T00:48:23;3.10;;;1.90;;
18048;SDS011;9149;47.002;8.604;2023-07-13T00:50:53;7.53;;;1.98;;
18048;SDS011;9149;47.002;8.604;2023-07-13T00:53:40;3.75;;;1.67;;
18048;SDS011;9149;47.002;8.604;2023-07-13T00:56:08;2.83;;;1.67;;
18048;SDS011;9149;47.002;8.604;2023-07-13T00:58:36;2.53;;;1.50;;
18048;SDS011;9149;47.002;8.604;2023-07-13T01:01:04;2.13;;;1.42;;
18048;SDS011;9149;47.002;8.604;2023-07-13T01:03:34;2.75;;;1.60;;
18048;SDS011;9149;47.002;8.604;2023-07-13T01:06:01;2.22;;;1.50;;
18048;SDS011;9149;47.002;8.604;2023-07-13T01:08:30;3.47;;;1.30;;
18048;SDS011;9149;47.002;8.604;2023-07-13T01:10:59;2.92;;;1.50;;
18048;SDS011;9149;47.002;8.604;2023-07-13T01:13:27;4.30;;;1.77;;
18048;SDS011;9149;47.002;8.604;2023-07-13T01:15:55;3.60;;;1.65;;
18048;SDS011;9149;47.002;8.604;2023-07-13T01:18:26;10.25;;;1.95;;
18048;SDS011;9149;47.002;8.604;2023-07-13T01:20:56;2.45;;;1.58;;
18048;SDS011;9149;47.002;8.604;2023-07-13T01:23:24;2.17;;;1.60;;
18048;SDS011;9149;47.002;8.604;2023-07-13T01:25:54;2.17;;;1.60;;
18048;SDS011;9149;47.002;8.604;2023-07-13T01:28:23;2.75;;;1.30;;
18048;SDS011;9149;47.002;8.604;2023-07-13T01:30:53;3.13;;;1.60;;
18048;SDS011;9149;47.002;8.604;2023-07-13T01:33:22;6.85;;;1.60;;
18048;SDS011;9149;47.002;8.604;2023-07-13T01:35:49;3.08;;;1.88;;
18048;SDS011;9149;47.002;8.604;2023-07-13T01:38:19;4.03;;;1.60;;
18048;SDS011;9149;47.002;8.604;2023-07-13T01:40:47;2.92;;;1.40;;
18048;SDS011;9149;47.002;8.604;2023-07-13T01:43:15;2.97;;;1.67;;
18048;SDS011;9149;47.002;8.604;2023-07-13T01:45:43;4.47;;;1.42;;
18048;SDS011;9149;47.002;8.604;2023-07-13T01:48:12;5.07;;;1.65;;
18048;SDS011;9149;47.002;8.604;2023-07-13T01:50:40;2.38;;;1.50;;
18048;SDS011;9149;47.002;8.604;2023-07-13T01:53:08;2.30;;;1.40;;
18048;SDS011;9149;47.002;8.604;2023-07-13T01:55:38;3.53;;;1.35;;
18048;SDS011;9149;47.002;8.604;2023-07-13T01:58:07;2.05;;;1.27;;
18048;SDS011;9149;47.002;8.604;2023-07-13T02:00:35;2.70;;;1.40;;
18048;SDS011;9149;47.002;8.604;2023-07-13T02:03:02;2.60;;;1.52;;
18048;SDS011;9149;47.002;8.604;2023-07-13T02:05:31;2.33;;;1.45;;
18048;SDS011;9149;47.002;8.604;2023-07-13T02:07:59;7.70;;;1.80;;
18048;SDS011;9149;47.002;8.604;2023-07-13T02:10:26;6.07;;;1.30;;
18048;SDS011;9149;47.002;8.604;2023-07-13T02:12:56;5.05;;;1.58;;
18048;SDS011;9149;47.002;8.604;2023-07-13T02:15:23;2.55;;;1.67;;
18048;SDS011;9149;47.002;8.604;2023-07-13T02:17:51;4.43;;;1.65;;
18048;SDS011;9149;47.002;8.604;2023-07-13T02:20:19;1.90;;;1.40;;
18048;SDS011;9149;47.002;8.604;2023-07-13T02:22:47;3.95;;;1.70;;
18048;SDS011;9149;47.002;8.604;2023-07-13T02:25:15;8.95;;;1.73;;
18048;SDS011;9149;47.002;8.604;2023-07-13T02:27:42;4.40;;;1.85;;
18048;SDS011;9149;47.002;8.604;2023-07-13T02:30:11;2.35;;;1.60;;
18048;SDS011;9149;47.002;8.604;2023-07-13T02:32:39;4.70;;;1.83;;
18048;SDS011;9149;47.002;8.604;2023-07-13T02:35:07;3.15;;;1.60;;
18048;SDS011;9149;47.002;8.604;2023-07-13T02:37:37;2.72;;;1.55;;
18048;SDS011;9149;47.002;8.604;2023-07-13T02:40:05;4.13;;;1.83;;
18048;SDS011;9149;47.002;8.604;2023-07-13T02:42:35;4.50;;;1.50;;
18048;SDS011;9149;47.002;8.604;2023-07-13T02:45:06;3.15;;;1.45;;
18048;SDS011;9149;47.002;8.604;2023-07-13T02:47:35;4.78;;;1.45;;
18048;SDS011;9149;47.002;8.604;2023-07-13T02:50:03;4.72;;;1.80;;
18048;SDS011;9149;47.002;8.604;2023-07-13T02:52:31;2.35;;;1.42;;
18048;SDS011;9149;47.002;8.604;2023-07-13T02:54:59;2.25;;;1.40;;
18048;SDS011;9149;47.002;8.604;2023-07-13T02:57:28;3.33;;;1.83;;
18048;SDS011;9149;47.002;8.604;2023-07-13T02:59:56;2.17;;;1.48;;
18048;SDS011;9149;47.002;8.604;2023-07-13T03:02:25;3.78;;;1.70;;
18048;SDS011;9149;47.002;8.604;2023-07-13T03:04:55;4.47;;;1.85;;
18048;SDS011;9149;47.002;8.604;2023-07-13T03:07:23;3.25;;;1.85;;
18048;SDS011;9149;47.002;8.604;2023-07-13T03:09:53;4.22;;;1.77;;
18048;SDS011;9149;47.002;8.604;2023-07-13T03:12:22;6.18;;;1.60;;
18048;SDS011;9149;47.002;8.604;2023-07-13T03:14:51;2.80;;;1.50;;
18048;SDS011;9149;47.002;8.604;2023-07-13T03:17:20;5.18;;;1.85;;
18048;SDS011;9149;47.002;8.604;2023-07-13T03:19:48;4.38;;;1.77;;
18048;SDS011;9149;47.002;8.604;2023-07-13T03:22:19;2.92;;;1.83;;
18048;SDS011;9149;47.002;8.604;2023-07-13T03:24:47;7.22;;;1.75;;
18048;SDS011;9149;47.002;8.604;2023-07-13T03:27:15;5.28;;;1.60;;
18048;SDS011;9149;47.002;8.604;2023-07-13T03:29:44;6.40;;;1.90;;
18048;SDS011;9149;47.002;8.604;2023-07-13T03:32:14;3.58;;;1.75;;
18048;SDS011;9149;47.002;8.604;2023-07-13T03:34:43;3.25;;;1.60;;
18048;SDS011;9149;47.002;8.604;2023-07-13T03:37:11;4.05;;;1.77;;
18048;SDS011;9149;47.002;8.604;2023-07-13T03:39:41;4.65;;;2.00;;
18048;SDS011;9149;47.002;8.604;2023-07-13T03:42:10;4.10;;;2.10;;
18048;SDS011;9149;47.002;8.604;2023-07-13T03:45:14;5.35;;;2.33;;
18048;SDS011;9149;47.002;8.604;2023-07-13T03:47:42;3.03;;;1.80;;
18048;SDS011;9149;47.002;8.604;2023-07-13T03:50:10;3.67;;;1.98;;
18048;SDS011;9149;47.002;8.604;2023-07-13T03:52:38;4.05;;;2.40;;
18048;SDS011;9149;47.002;8.604;2023-07-13T03:55:07;3.25;;;1.90;;
18048;SDS011;9149;47.002;8.604;2023-07-13T03:57:35;4.63;;;1.50;;
18048;SDS011;9149;47.002;8.604;2023-07-13T04:00:07;8.52;;;2.22;;
18048;SDS011;9149;47.002;8.604;2023-07-13T04:02:41;3.50;;;1.92;;
18048;SDS011;9149;47.002;8.604;2023-07-13T04:05:09;3.38;;;1.95;;
18048;SDS011;9149;47.002;8.604;2023-07-13T04:07:36;2.78;;;1.88;;
18048;SDS011;9149;47.002;8.604;2023-07-13T04:10:07;6.45;;;1.80;;
18048;SDS011;9149;47.002;8.604;2023-07-13T04:12:35;3.10;;;1.85;;
18048;SDS011;9149;47.002;8.604;2023-07-13T04:15:03;4.22;;;1.75;;
18048;SDS011;9149;47.002;8.604;2023-07-13T04:17:31;3.38;;;1.80;;
18048;SDS011;9149;47.002;8.604;2023-07-13T04:19:58;4.90;;;1.85;;
18048;SDS011;9149;47.002;8.604;2023-07-13T04:22:26;3.25;;;1.80;;
18048;SDS011;9149;47.002;8.604;2023-07-13T04:24:54;9.18;;;2.05;;
18048;SDS011;9149;47.002;8.604;2023-07-13T04:27:22;3.03;;;1.60;;
18048;SDS011;9149;47.002;8.604;2023-07-13T04:29:51;4.18;;;2.03;;
18048;SDS011;9149;47.002;8.604;2023-07-13T04:32:19;2.67;;;1.73;;
18048;SDS011;9149;47.002;8.604;2023-07-13T04:34:46;2.95;;;1.80;;
18048;SDS011;9149;47.002;8.604;2023-07-13T04:37:20;8.80;;;1.92;;
18048;SDS011;9149;47.002;8.604;2023-07-13T04:39:47;3.60;;;2.15;;
18048;SDS011;9149;47.002;8.604;2023-07-13T04:42:15;3.78;;;1.95;;
18048;SDS011;9149;47.002;8.604;2023-07-13T04:44:48;6.88;;;2.25;;
18048;SDS011;9149;47.002;8.604;2023-07-13T04:47:16;4.72;;;1.90;;
18048;SDS011;9149;47.002;8.604;2023-07-13T04:49:44;3.72;;;1.80;;
18048;SDS011;9149;47.002;8.604;2023-07-13T04:52:30;3.50;;;1.77;;
18048;SDS011;9149;47.002;8.604;2023-07-13T04:54:59;4.25;;;1.70;;
18048;SDS011;9149;47.002;8.604;2023-07-13T04:57:27;2.55;;;1.70;;
18048;SDS011;9149;47.002;8.604;2023-07-13T04:59:56;3.28;;;1.80;;
18048;SDS011;9149;47.002;8.604;2023-07-13T05:02:27;4.88;;;2.30;;
18048;SDS011;9149;47.002;8.604;2023-07-13T05:04:57;4.53;;;1.90;;
18048;SDS011;9149;47.002;8.604;2023-07-13T05:07:25;3.55;;;1.58;;
18048;SDS011;9149;47.002;8.604;2023-07-13T05:09:53;3.15;;;1.85;;
18048;SDS011;9149;47.002;8.604;2023-07-13T05:12:20;3.00;;;1.73;;
18048;SDS011;9149;47.002;8.604;2023-07-13T05:14:48;3.60;;;1.85;;
18048;SDS011;9149;47.002;8.604;2023-07-13T05:17:17;4.35;;;1.70;;
18048;SDS011;9149;47.002;8.604;2023-07-13T05:19:45;2.72;;;1.80;;
18048;SDS011;9149;47.002;8.604;2023-07-13T05:22:30;3.80;;;1.75;;
18048;SDS011;9149;47.002;8.604;2023-07-13T05:24:58;5.20;;;2.05;;
18048;SDS011;9149;47.002;8.604;2023-07-13T05:27:25;7.63;;;1.67;;
18048;SDS011;9149;47.002;8.604;2023-07-13T05:29:53;2.50;;;1.80;;
18048;SDS011;9149;47.002;8.604;2023-07-13T05:32:22;4.47;;;1.80;;
18048;SDS011;9149;47.002;8.604;2023-07-13T05:34:50;5.70;;;1.73;;
18048;SDS011;9149;47.002;8.604;2023-07-13T05:37:17;4.25;;;1.75;;
18048;SDS011;9149;47.002;8.604;2023-07-13T05:39:45;2.53;;;1.63;;
18048;SDS011;9149;47.002;8.604;2023-07-13T05:42:13;7.93;;;1.90;;
18048;SDS011;9149;47.002;8.604;2023-07-13T05:44:40;6.18;;;2.10;;
18048;SDS011;9149;47.002;8.604;2023-07-13T05:47:08;2.70;;;1.85;;
18048;SDS011;9149;47.002;8.604;2023-07-13T05:49:37;5.03;;;2.00;;
18048;SDS011;9149;47.002;8.604;2023-07-13T05:52:05;2.40;;;1.50;;
18048;SDS011;9149;47.002;8.604;2023-07-13T05:54:33;3.40;;;2.15;;
18048;SDS011;9149;47.002;8.604;2023-07-13T05:57:00;6.50;;;2.25;;
18048;SDS011;9149;47.002;8.604;2023-07-13T05:59:28;10.20;;;2.10;;
18048;SDS011;9149;47.002;8.604;2023-07-13T06:01:56;3.30;;;1.85;;
18048;SDS011;9149;47.002;8.604;2023-07-13T06:04:23;5.13;;;1.90;;
18048;SDS011;9149;47.002;8.604;2023-07-13T06:06:52;3.13;;;2.00;;
18048;SDS011;9149;47.002;8.604;2023-07-13T06:09:20;3.67;;;2.10;;
18048;SDS011;9149;47.002;8.604;2023-07-13T06:11:48;3.63;;;2.10;;
18048;SDS011;9149;47.002;8.604;2023-07-13T06:14:15;5.05;;;1.83;;
18048;SDS011;9149;47.002;8.604;2023-07-13T06:16:43;3.65;;;2.05;;
18048;SDS011;9149;47.002;8.604;2023-07-13T06:19:12;3.85;;;2.35;;
18048;SDS011;9149;47.002;8.604;2023-07-13T06:21:39;4.13;;;2.05;;
18048;SDS011;9149;47.002;8.604;2023-07-13T06:24:08;3.10;;;1.80;;
18048;SDS011;9149;47.002;8.604;2023-07-13T06:26:36;5.85;;;1.98;;
18048;SDS011;9149;47.002;8.604;2023-07-13T06:29:03;5.85;;;2.15;;
18048;SDS011;9149;47.002;8.604;2023-07-13T06:31:31;6.70;;;1.95;;
18048;SDS011;9149;47.002;8.604;2023-07-13T06:33:59;8.32;;;2.30;;
18048;SDS011;9149;47.002;8.604;2023-07-13T06:36:26;6.43;;;1.92;;
18048;SDS011;9149;47.002;8.604;2023-07-13T06:38:54;6.50;;;2.00;;
18048;SDS011;9149;47.002;8.604;2023-07-13T06:41:23;5.90;;;2.30;;
18048;SDS011;9149;47.002;8.604;2023-07-13T06:43:52;5.38;;;1.98;;
18048;SDS011;9149;47.002;8.604;2023-07-13T06:46:20;4.13;;;2.10;;
18048;SDS011;9149;47.002;8.604;2023-07-13T06:48:48;4.25;;;2.05;;
18048;SDS011;9149;47.002;8.604;2023-07-13T06:51:16;2.90;;;1.88;;
18048;SDS011;9149;47.002;8.604;2023-07-13T06:53:43;4.10;;;2.13;;
18048;SDS011;9149;47.002;8.604;2023-07-13T06:56:11;2.80;;;1.70;;
18048;SDS011;9149;47.002;8.604;2023-07-13T06:58:40;2.95;;;1.90;;
18048;SDS011;9149;47.002;8.604;2023-07-13T07:01:08;4.30;;;1.98;;
18048;SDS011;9149;47.002;8.604;2023-07-13T07:03:36;3.38;;;1.58;;
18048;SDS011;9149;47.002;8.604;2023-07-13T07:06:07;5.82;;;2.00;;
18048;SDS011;9149;47.002;8.604;2023-07-13T07:08:39;3.92;;;1.90;;
18048;SDS011;9149;47.002;8.604;2023-07-13T07:11:07;4.18;;;2.17;;
18048;SDS011;9149;47.002;8.604;2023-07-13T07:13:36;5.80;;;1.73;;
18048;SDS011;9149;47.002;8.604;2023-07-13T07:16:05;3.00;;;1.88;;
18048;SDS011;9149;47.002;8.604;2023-07-13T07:18:33;4.65;;;1.90;;
18048;SDS011;9149;47.002;8.604;2023-07-13T07:21:00;3.75;;;1.98;;
18048;SDS011;9149;47.002;8.604;2023-07-13T07:23:28;3.42;;;1.85;;
18048;SDS011;9149;47.002;8.604;2023-07-13T07:25:56;4.32;;;1.77;;
18048;SDS011;9149;47.002;8.604;2023-07-13T07:28:23;5.40;;;2.05;;
18048;SDS011;9149;47.002;8.604;2023-07-13T07:30:55;3.40;;;1.58;;
18048;SDS011;9149;47.002;8.604;2023-07-13T07:33:27;4.20;;;1.65;;
18048;SDS011;9149;47.002;8.604;2023-07-13T07:35:54;2.85;;;1.70;;
18048;SDS011;9149;47.002;8.604;2023-07-13T07:38:25;3.08;;;1.70;;
18048;SDS011;9149;47.002;8.604;2023-07-13T07:40:54;2.80;;;1.73;;
18048;SDS011;9149;47.002;8.604;2023-07-13T07:43:24;2.67;;;1.50;;
18048;SDS011;9149;47.002;8.604;2023-07-13T07:45:52;1.90;;;1.40;;
18048;SDS011;9149;47.002;8.604;2023-07-13T07:48:20;3.80;;;1.50;;
18048;SDS011;9149;47.002;8.604;2023-07-13T07:50:49;2.60;;;1.35;;
18048;SDS011;9149;47.002;8.604;2023-07-13T07:53:16;2.80;;;1.40;;
18048;SDS011;9149;47.002;8.604;2023-07-13T07:55:44;2.40;;;1.60;;
18048;SDS011;9149;47.002;8.604;2023-07-13T07:58:15;2.63;;;1.58;;
18048;SDS011;9149;47.002;8.604;2023-07-13T08:01:03;2.92;;;1.30;;
18048;SDS011;9149;47.002;8.604;2023-07-13T08:03:34;2.20;;;1.23;;
18048;SDS011;9149;47.002;8.604;2023-07-13T08:06:06;3.72;;;1.30;;
18048;SDS011;9149;47.002;8.604;2023-07-13T08:08:36;2.80;;;1.40;;
18048;SDS011;9149;47.002;8.604;2023-07-13T08:11:04;1.40;;;1.05;;
18048;SDS011;9149;47.002;8.604;2023-07-13T08:13:53;2.38;;;1.00;;
18048;SDS011;9149;47.002;8.604;2023-07-13T08:16:21;1.88;;;0.82;;
18048;SDS011;9149;47.002;8.604;2023-07-13T08:18:50;1.58;;;1.10;;
18048;SDS011;9149;47.002;8.604;2023-07-13T08:21:19;2.00;;;1.17;;
18048;SDS011;9149;47.002;8.604;2023-07-13T08:23:48;5.03;;;1.50;;
18048;SDS011;9149;47.002;8.604;2023-07-13T08:26:15;1.98;;;1.02;;
18048;SDS011;9149;47.002;8.604;2023-07-13T08:28:43;3.70;;;1.23;;
18048;SDS011;9149;47.002;8.604;2023-07-13T08:31:11;5.38;;;1.20;;
18048;SDS011;9149;47.002;8.604;2023-07-13T08:33:40;1.55;;;1.00;;
18048;SDS011;9149;47.002;8.604;2023-07-13T08:36:08;2.88;;;0.90;;
18048;SDS011;9149;47.002;8.604;2023-07-13T08:38:37;1.33;;;0.90;;
18048;SDS011;9149;47.002;8.604;2023-07-13T08:41:09;2.03;;;1.17;;
18048;SDS011;9149;47.002;8.604;2023-07-13T08:43:38;2.97;;;1.50;;
18048;SDS011;9149;47.002;8.604;2023-07-13T08:46:08;2.58;;;1.33;;
18048;SDS011;9149;47.002;8.604;2023-07-13T08:48:38;3.65;;;1.20;;
18048;SDS011;9149;47.002;8.604;2023-07-13T08:51:11;3.63;;;1.23;;
18048;SDS011;9149;47.002;8.604;2023-07-13T08:53:46;1.55;;;1.30;;
18048;SDS011;9149;47.002;8.604;2023-07-13T08:56:16;3.08;;;1.25;;
18048;SDS011;9149;47.002;8.604;2023-07-13T08:58:44;2.55;;;1.30;;
18048;SDS011;9149;47.002;8.604;2023-07-13T09:01:16;2.80;;;1.40;;
18048;SDS011;9149;47.002;8.604;2023-07-13T09:03:49;3.05;;;1.40;;
18048;SDS011;9149;47.002;8.604;2023-07-13T09:06:21;2.97;;;1.40;;
18048;SDS011;9149;47.002;8.604;2023-07-13T09:08:54;2.55;;;1.60;;
18048;SDS011;9149;47.002;8.604;2023-07-13T09:11:28;3.33;;;1.80;;
18048;SDS011;9149;47.002;8.604;2023-07-13T09:14:02;3.00;;;1.67;;
18048;SDS011;9149;47.002;8.604;2023-07-13T09:16:32;3.08;;;1.50;;
18048;SDS011;9149;47.002;8.604;2023-07-13T09:19:02;3.40;;;1.90;;
18048;SDS011;9149;47.002;8.604;2023-07-13T09:21:32;3.40;;;1.58;;
18048;SDS011;9149;47.002;8.604;2023-07-13T09:26:49;2.70;;;1.40;;
18048;SDS011;9149;47.002;8.604;2023-07-13T09:29:19;3.00;;;1.83;;
18048;SDS011;9149;47.002;8.604;2023-07-13T09:31:49;3.63;;;1.90;;
18048;SDS011;9149;47.002;8.604;2023-07-13T09:34:18;3.58;;;1.95;;
18048;SDS011;9149;47.002;8.604;2023-07-13T09:36:47;4.93;;;2.28;;
18048;SDS011;9149;47.002;8.604;2023-07-13T09:39:22;2.80;;;2.00;;
18048;SDS011;9149;47.002;8.604;2023-07-13T09:41:54;3.58;;;1.92;;
18048;SDS011;9149;47.002;8.604;2023-07-13T09:47:15;5.07;;;2.15;;
18048;SDS011;9149;47.002;8.604;2023-07-13T09:50:03;3.42;;;2.08;;
18048;SDS011;9149;47.002;8.604;2023-07-13T09:52:39;4.55;;;2.25;;
18048;SDS011;9149;47.002;8.604;2023-07-13T09:55:16;2.63;;;1.90;;
18048;SDS011;9149;47.002;8.604;2023-07-13T09:57:50;3.50;;;1.88;;
18048;SDS011;9149;47.002;8.604;2023-07-13T10:00:21;4.55;;;2.15;;
18048;SDS011;9149;47.002;8.604;2023-07-13T10:02:57;3.60;;;1.95;;
18048;SDS011;9149;47.002;8.604;2023-07-13T10:05:25;4.78;;;2.28;;
18048;SDS011;9149;47.002;8.604;2023-07-13T10:07:53;4.43;;;1.80;;
18048;SDS011;9149;47.002;8.604;2023-07-13T10:10:24;2.20;;;1.70;;
18048;SDS011;9149;47.002;8.604;2023-07-13T10:12:52;5.07;;;2.15;;
18048;SDS011;9149;47.002;8.604;2023-07-13T10:15:20;4.40;;;1.88;;
18048;SDS011;9149;47.002;8.604;2023-07-13T10:17:51;2.88;;;2.10;;
18048;SDS011;9149;47.002;8.604;2023-07-13T10:20:19;3.30;;;2.03;;
18048;SDS011;9149;47.002;8.604;2023-07-13T10:22:49;2.58;;;2.10;;
18048;SDS011;9149;47.002;8.604;2023-07-13T10:25:19;2.53;;;2.00;;
18048;SDS011;9149;47.002;8.604;2023-07-13T10:27:50;4.13;;;2.00;;
18048;SDS011;9149;47.002;8.604;2023-07-13T10:30:20;3.03;;;1.92;;
18048;SDS011;9149;47.002;8.604;2023-07-13T10:32:51;3.45;;;2.00;;
18048;SDS011;9149;47.002;8.604;2023-07-13T10:35:20;2.33;;;1.60;;
18048;SDS011;9149;47.002;8.604;2023-07-13T10:37:51;3.30;;;2.13;;
18048;SDS011;9149;47.002;8.604;2023-07-13T10:40:22;3.08;;;1.70;;
18048;SDS011;9149;47.002;8.604;2023-07-13T10:42:52;2.65;;;1.73;;
18048;SDS011;9149;47.002;8.604;2023-07-13T10:45:22;1.25;;;1.10;;
18048;SDS011;9149;47.002;8.604;2023-07-13T10:47:51;2.65;;;1.40;;
18048;SDS011;9149;47.002;8.604;2023-07-13T10:50:20;2.17;;;1.50;;
18048;SDS011;9149;47.002;8.604;2023-07-13T10:52:49;2.25;;;1.50;;
18048;SDS011;9149;47.002;8.604;2023-07-13T10:57:59;1.40;;;1.20;;
18048;SDS011;9149;47.002;8.604;2023-07-13T11:00:30;1.85;;;1.10;;
18048;SDS011;9149;47.002;8.604;2023-07-13T11:02:58;1.17;;;0.95;;
18048;SDS011;9149;47.002;8.604;2023-07-13T11:05:28;1.65;;;1.20;;
18048;SDS011;9149;47.002;8.604;2023-07-13T11:08:02;1.98;;;1.35;;
18048;SDS011;9149;47.002;8.604;2023-07-13T11:15:56;1.67;;;1.00;;
18048;SDS011;9149;47.002;8.604;2023-07-13T11:18:24;4.35;;;1.10;;
18048;SDS011;9149;47.002;8.604;2023-07-13T11:20:52;1.90;;;1.00;;
18048;SDS011;9149;47.002;8.604;2023-07-13T11:24:01;3.17;;;1.42;;
18048;SDS011;9149;47.002;8.604;2023-07-13T11:29:15;1.23;;;0.95;;
18048;SDS011;9149;47.002;8.604;2023-07-13T11:31:54;2.78;;;1.00;;
18048;SDS011;9149;47.002;8.604;2023-07-13T11:34:23;1.92;;;1.05;;
18048;SDS011;9149;47.002;8.604;2023-07-13T11:36:53;2.03;;;1.20;;
18048;SDS011;9149;47.002;8.604;2023-07-13T11:39:24;1.10;;;1.00;;
18048;SDS011;9149;47.002;8.604;2023-07-13T11:41:53;1.52;;;1.00;;
18048;SDS011;9149;47.002;8.604;2023-07-13T11:44:24;2.42;;;1.10;;
18048;SDS011;9149;47.002;8.604;2023-07-13T11:46:54;1.00;;;0.90;;
18048;SDS011;9149;47.002;8.604;2023-07-13T11:49:23;1.00;;;0.70;;
18048;SDS011;9149;47.002;8.604;2023-07-13T11:51:52;1.13;;;0.70;;
18048;SDS011;9149;47.002;8.604;2023-07-13T11:54:24;1.13;;;0.80;;
18048;SDS011;9149;47.002;8.604;2023-07-13T11:56:53;1.00;;;0.80;;
18048;SDS011;9149;47.002;8.604;2023-07-13T11:59:21;2.00;;;0.70;;
18048;SDS011;9149;47.002;8.604;2023-07-13T12:01:50;1.17;;;0.88;;
18048;SDS011;9149;47.002;8.604;2023-07-13T12:04:22;0.93;;;0.75;;
18048;SDS011;9149;47.002;8.604;2023-07-13T12:06:58;2.53;;;1.00;;
18048;SDS011;9149;47.002;8.604;2023-07-13T12:09:30;1.33;;;1.00;;
18048;SDS011;9149;47.002;8.604;2023-07-13T12:11:58;1.52;;;1.02;;
18048;SDS011;9149;47.002;8.604;2023-07-13T12:14:27;1.65;;;1.02;;
18048;SDS011;9149;47.002;8.604;2023-07-13T12:16:55;1.27;;;0.98;;
18048;SDS011;9149;47.002;8.604;2023-07-13T12:19:25;1.60;;;1.02;;
18048;SDS011;9149;47.002;8.604;2023-07-13T12:21:54;1.10;;;0.93;;
18048;SDS011;9149;47.002;8.604;2023-07-13T12:24:23;1.20;;;1.00;;
18048;SDS011;9149;47.002;8.604;2023-07-13T12:26:51;2.85;;;1.05;;
18048;SDS011;9149;47.002;8.604;2023-07-13T12:29:19;1.02;;;0.90;;
18048;SDS011;9149;47.002;8.604;2023-07-13T12:31:48;0.82;;;0.80;;
18048;SDS011;9149;47.002;8.604;2023-07-13T12:34:17;1.42;;;1.05;;
18048;SDS011;9149;47.002;8.604;2023-07-13T12:36:47;1.35;;;0.90;;
18048;SDS011;9149;47.002;8.604;2023-07-13T12:39:17;0.80;;;0.70;;
18048;SDS011;9149;47.002;8.604;2023-07-13T12:41:44;2.22;;;0.70;;
18048;SDS011;9149;47.002;8.604;2023-07-13T12:44:13;2.65;;;1.02;;
18048;SDS011;9149;47.002;8.604;2023-07-13T12:46:50;1.15;;;0.90;;
18048;SDS011;9149;47.002;8.604;2023-07-13T12:49:22;1.83;;;0.98;;
18048;SDS011;9149;47.002;8.604;2023-07-13T12:51:55;1.05;;;0.77;;
18048;SDS011;9149;47.002;8.604;2023-07-13T12:54:23;1.23;;;0.90;;
18048;SDS011;9149;47.002;8.604;2023-07-13T12:56:52;2.60;;;1.02;;
18048;SDS011;9149;47.002;8.604;2023-07-13T12:59:20;1.75;;;0.82;;
18048;SDS011;9149;47.002;8.604;2023-07-13T13:01:49;2.15;;;0.75;;
18048;SDS011;9149;47.002;8.604;2023-07-13T13:04:17;3.75;;;0.70;;
18048;SDS011;9149;47.002;8.604;2023-07-13T13:06:48;1.02;;;0.82;;
18048;SDS011;9149;47.002;8.604;2023-07-13T13:09:18;1.13;;;0.80;;
18048;SDS011;9149;47.002;8.604;2023-07-13T13:11:46;0.85;;;0.70;;
18048;SDS011;9149;47.002;8.604;2023-07-13T13:14:14;4.97;;;2.28;;
18048;SDS011;9149;47.002;8.604;2023-07-13T13:16:45;0.95;;;0.70;;
18048;SDS011;9149;47.002;8.604;2023-07-13T13:19:16;2.17;;;0.68;;
18048;SDS011;9149;47.002;8.604;2023-07-13T13:21:45;3.38;;;0.88;;
18048;SDS011;9149;47.002;8.604;2023-07-13T13:24:14;1.25;;;0.80;;
18048;SDS011;9149;47.002;8.604;2023-07-13T13:26:44;1.10;;;0.68;;
18048;SDS011;9149;47.002;8.604;2023-07-13T13:29:12;0.73;;;0.68;;
18048;SDS011;9149;47.002;8.604;2023-07-13T13:31:41;1.95;;;0.68;;
18048;SDS011;9149;47.002;8.604;2023-07-13T13:34:11;1.17;;;0.70;;
18048;SDS011;9149;47.002;8.604;2023-07-13T13:36:40;1.10;;;0.70;;
18048;SDS011;9149;47.002;8.604;2023-07-13T13:39:15;0.50;;;0.50;;
18048;SDS011;9149;47.002;8.604;2023-07-13T13:41:45;0.50;;;0.40;;
18048;SDS011;9149;47.002;8.604;2023-07-13T13:44:13;1.85;;;0.80;;
18048;SDS011;9149;47.002;8.604;2023-07-13T13:46:41;1.63;;;0.55;;
18048;SDS011;9149;47.002;8.604;2023-07-13T13:49:11;0.98;;;0.60;;
18048;SDS011;9149;47.002;8.604;2023-07-13T13:51:40;0.82;;;0.65;;
18048;SDS011;9149;47.002;8.604;2023-07-13T13:54:10;0.80;;;0.60;;
18048;SDS011;9149;47.002;8.604;2023-07-13T13:56:38;0.70;;;0.60;;
18048;SDS011;9149;47.002;8.604;2023-07-13T13:59:07;0.95;;;0.50;;
18048;SDS011;9149;47.002;8.604;2023-07-13T14:01:35;0.95;;;0.52;;
18048;SDS011;9149;47.002;8.604;2023-07-13T14:04:04;1.25;;;0.80;;
18048;SDS011;9149;47.002;8.604;2023-07-13T14:06:33;1.00;;;0.50;;
18048;SDS011;9149;47.002;8.604;2023-07-13T14:09:01;1.13;;;0.80;;
18048;SDS011;9149;47.002;8.604;2023-07-13T14:11:29;1.85;;;0.70;;
18048;SDS011;9149;47.002;8.604;2023-07-13T14:13:59;0.70;;;0.60;;
18048;SDS011;9149;47.002;8.604;2023-07-13T14:16:46;3.00;;;0.85;;
18048;SDS011;9149;47.002;8.604;2023-07-13T14:19:20;1.38;;;0.77;;
18048;SDS011;9149;47.002;8.604;2023-07-13T14:21:47;1.52;;;0.80;;
18048;SDS011;9149;47.002;8.604;2023-07-13T14:24:16;0.40;;;0.40;;
18048;SDS011;9149;47.002;8.604;2023-07-13T14:26:43;1.52;;;0.88;;
18048;SDS011;9149;47.002;8.604;2023-07-13T14:29:12;1.10;;;0.70;;
18048;SDS011;9149;47.002;8.604;2023-07-13T14:31:41;1.67;;;0.68;;
18048;SDS011;9149;47.002;8.604;2023-07-13T14:34:11;0.90;;;0.70;;
18048;SDS011;9149;47.002;8.604;2023-07-13T14:36:40;0.93;;;0.70;;
18048;SDS011;9149;47.002;8.604;2023-07-13T14:39:11;1.10;;;0.63;;
18048;SDS011;9149;47.002;8.604;2023-07-13T14:41:39;2.03;;;0.55;;
18048;SDS011;9149;47.002;8.604;2023-07-13T14:44:10;1.60;;;0.77;;
18048;SDS011;9149;47.002;8.604;2023-07-13T14:46:38;1.35;;;0.65;;
18048;SDS011;9149;47.002;8.604;2023-07-13T14:49:12;0.90;;;0.55;;
18048;SDS011;9149;47.002;8.604;2023-07-13T14:51:41;1.05;;;0.50;;
18048;SDS011;9149;47.002;8.604;2023-07-13T14:54:09;0.75;;;0.50;;
18048;SDS011;9149;47.002;8.604;2023-07-13T14:56:38;2.22;;;0.82;;
18048;SDS011;9149;47.002;8.604;2023-07-13T14:59:05;0.68;;;0.50;;
18048;SDS011;9149;47.002;8.604;2023-07-13T15:01:34;0.90;;;0.65;;
18048;SDS011;9149;47.002;8.604;2023-07-13T15:04:02;0.70;;;0.60;;
18048;SDS011;9149;47.002;8.604;2023-07-13T15:06:50;2.90;;;0.70;;
18048;SDS011;9149;47.002;8.604;2023-07-13T15:09:36;1.48;;;0.77;;
18048;SDS011;9149;47.002;8.604;2023-07-13T15:12:04;0.70;;;0.50;;
18048;SDS011;9149;47.002;8.604;2023-07-13T15:14:32;0.98;;;0.77;;
18048;SDS011;9149;47.002;8.604;2023-07-13T15:17:00;0.88;;;0.70;;
18048;SDS011;9149;47.002;8.604;2023-07-13T15:19:28;3.80;;;0.90;;
18048;SDS011;9149;47.002;8.604;2023-07-13T15:22:16;1.58;;;0.95;;
18048;SDS011;9149;47.002;8.604;2023-07-13T15:24:44;1.70;;;0.60;;
18048;SDS011;9149;47.002;8.604;2023-07-13T15:27:13;1.38;;;0.80;;
18048;SDS011;9149;47.002;8.604;2023-07-13T15:29:40;1.15;;;0.90;;
18048;SDS011;9149;47.002;8.604;2023-07-13T15:32:11;0.70;;;0.50;;
18048;SDS011;9149;47.002;8.604;2023-07-13T15:37:27;1.10;;;0.75;;